sensor_id;sensor_type;location;lat;lon;timestamp;pressure;altitude;pressure_sealevel;temperature;humidity
39954;BME280;25631;51.516;-0.470;2024-01-06T00:01:47;100747.15;;;6.77;39.23
39954;BME280;25631;51.516;-0.470;2024-01-06T00:04:24;100747.02;;;7.14;39.31
39954;BME280;25631;51.516;-0.470;2024-01-06T00:07:00;100746.08;;;6.56;39.46
39954;BME280;25631;51.516;-0.470;2024-01-06T00:09:37;100745.57;;;7.20;39.43
39954;BME280;25631;51.516;-0.470;2024-01-06T00:12:13;100745.89;;;6.99;39.47
39954;BME280;25631;51.516;-0.470;2024-01-06T00:14:50;100746.61;;;7.03;39.47
39954;BME280;25631;51.516;-0.470;2024-01-06T00:17:27;100746.80;;;6.75;39.47
39954;BME280;25631;51.516;-0.470;2024-01-06T00:20:04;100750.75;;;6.60;39.46
39954;BME280;25631;51.516;-0.470;2024-01-06T00:22:40;100750.93;;;6.98;39.46
39954;BME280;25631;51.516;-0.470;2024-01-06T00:25:17;100754.50;;;6.95;39.52
39954;BME280;25631;51.516;-0.470;2024-01-06T00:27:53;100756.23;;;6.71;39.54
39954;BME280;25631;51.516;-0.470;2024-01-06T00:30:30;100758.55;;;6.63;39.54
39954;BME280;25631;51.516;-0.470;2024-01-06T00:33:06;100758.55;;;6.59;39.50
39954;BME280;25631;51.516;-0.470;2024-01-06T00:35:42;100763.33;;;6.96;39.34
39954;BME280;25631;51.516;-0.470;2024-01-06T00:38:19;100764.16;;;6.47;39.27
39954;BME280;25631;51.516;-0.470;2024-01-06T00:40:55;100766.83;;;6.90;39.30
39954;BME280;25631;51.516;-0.470;2024-01-06T00:43:32;100769.19;;;6.95;39.39
39954;BME280;25631;51.516;-0.470;2024-01-06T00:46:08;100768.90;;;6.87;39.44
39954;BME280;25631;51.516;-0.470;2024-01-06T00:48:44;100770.30;;;6.85;39.39
39954;BME280;25631;51.516;-0.470;2024-01-06T00:51:21;100773.92;;;7.08;39.33
39954;BME280;25631;51.516;-0.470;2024-01-06T00:53:58;100773.66;;;6.98;39.38
39954;BME280;25631;51.516;-0.470;2024-01-06T00:56:34;100778.29;;;7.03;39.42
39954;BME280;25631;51.516;-0.470;2024-01-06T00:59:11;100782.91;;;6.82;39.44
39954;BME280;25631;51.516;-0.470;2024-01-06T01:01:48;100784.06;;;6.85;39.47
39954;BME280;25631;51.516;-0.470;2024-01-06T01:04:24;100783.71;;;6.61;39.42
39954;BME280;25631;51.516;-0.470;2024-01-06T01:07:00;100782.72;;;6.73;39.34
39954;BME280;25631;51.516;-0.470;2024-01-06T01:09:37;100781.41;;;6.69;39.33
39954;BME280;25631;51.516;-0.470;2024-01-06T01:12:14;100779.91;;;6.89;39.27
39954;BME280;25631;51.516;-0.470;2024-01-06T01:14:50;100780.59;;;6.92;39.32
39954;BME280;25631;51.516;-0.470;2024-01-06T01:17:27;100782.84;;;6.82;39.22
39954;BME280;25631;51.516;-0.470;2024-01-06T01:20:04;100780.71;;;6.72;39.11
39954;BME280;25631;51.516;-0.470;2024-01-06T01:22:41;100781.92;;;6.74;38.93
39954;BME280;25631;51.516;-0.470;2024-01-06T01:25:17;100786.76;;;6.75;38.88
39954;BME280;25631;51.516;-0.470;2024-01-06T01:27:54;100793.16;;;6.72;38.85
39954;BME280;25631;51.516;-0.470;2024-01-06T01:30:30;100792.18;;;6.43;39.01
39954;BME280;25631;51.516;-0.470;2024-01-06T01:33:06;100795.44;;;6.71;39.04
39954;BME280;25631;51.516;-0.470;2024-01-06T01:35:43;100799.71;;;6.52;39.01
39954;BME280;25631;51.516;-0.470;2024-01-06T01:38:20;100805.06;;;6.30;39.06
39954;BME280;25631;51.516;-0.470;2024-01-06T01:40:56;100808.17;;;6.47;39.09
39954;BME280;25631;51.516;-0.470;2024-01-06T01:43:32;100810.24;;;6.45;39.15
39954;BME280;25631;51.516;-0.470;2024-01-06T01:46:12;100812.45;;;6.20;39.22
39954;BME280;25631;51.516;-0.470;2024-01-06T01:48:50;100816.02;;;6.27;39.22
39954;BME280;25631;51.516;-0.470;2024-01-06T01:51:29;100819.27;;;6.24;39.17
39954;BME280;25631;51.516;-0.470;2024-01-06T01:54:06;100820.66;;;6.73;39.20
39954;BME280;25631;51.516;-0.470;2024-01-06T01:56:43;100824.63;;;6.57;39.20
39954;BME280;25631;51.516;-0.470;2024-01-06T01:59:20;100829.75;;;6.23;39.26
39954;BME280;25631;51.516;-0.470;2024-01-06T02:01:56;100836.84;;;6.66;39.26
39954;BME280;25631;51.516;-0.470;2024-01-06T02:04:33;100839.95;;;6.83;39.42
39954;BME280;25631;51.516;-0.470;2024-01-06T02:07:09;100844.38;;;6.78;39.41
39954;BME280;25631;51.516;-0.470;2024-01-06T02:09:46;100846.89;;;6.41;39.42
39954;BME280;25631;51.516;-0.470;2024-01-06T02:12:22;100847.06;;;6.82;39.44
39954;BME280;25631;51.516;-0.470;2024-01-06T02:14:58;100849.42;;;6.86;39.47
39954;BME280;25631;51.516;-0.470;2024-01-06T02:17:35;100852.67;;;6.93;39.47
39954;BME280;25631;51.516;-0.470;2024-01-06T02:20:12;100854.79;;;6.82;39.47
39954;BME280;25631;51.516;-0.470;2024-01-06T02:22:49;100859.64;;;6.88;39.48
39954;BME280;25631;51.516;-0.470;2024-01-06T02:25:25;100857.98;;;6.71;39.43
39954;BME280;25631;51.516;-0.470;2024-01-06T02:28:02;100861.16;;;7.09;39.38
39954;BME280;25631;51.516;-0.470;2024-01-06T02:30:39;100862.73;;;6.93;39.37
39954;BME280;25631;51.516;-0.470;2024-01-06T02:33:15;100866.03;;;7.09;39.31
39954;BME280;25631;51.516;-0.470;2024-01-06T02:35:52;100867.46;;;6.72;39.26
39954;BME280;25631;51.516;-0.470;2024-01-06T02:38:28;100867.16;;;7.05;39.24
39954;BME280;25631;51.516;-0.470;2024-01-06T02:41:04;100871.63;;;7.15;39.25
39954;BME280;25631;51.516;-0.470;2024-01-06T02:43:41;100873.01;;;7.05;39.33
39954;BME280;25631;51.516;-0.470;2024-01-06T02:46:17;100873.70;;;6.78;39.34
39954;BME280;25631;51.516;-0.470;2024-01-06T02:48:53;100874.60;;;6.95;39.33
39954;BME280;25631;51.516;-0.470;2024-01-06T02:51:30;100876.14;;;6.81;39.50
39954;BME280;25631;51.516;-0.470;2024-01-06T02:54:06;100880.08;;;7.02;39.46
39954;BME280;25631;51.516;-0.470;2024-01-06T02:56:42;100883.17;;;7.13;39.50
39954;BME280;25631;51.516;-0.470;2024-01-06T02:59:19;100883.49;;;7.12;39.54
39954;BME280;25631;51.516;-0.470;2024-01-06T03:01:55;100884.25;;;6.74;39.49
39954;BME280;25631;51.516;-0.470;2024-01-06T03:04:32;100888.03;;;6.64;39.45
39954;BME280;25631;51.516;-0.470;2024-01-06T03:07:08;100890.71;;;6.98;39.45
39954;BME280;25631;51.516;-0.470;2024-01-06T03:09:45;100894.41;;;7.15;39.47
39954;BME280;25631;51.516;-0.470;2024-01-06T03:12:21;100896.85;;;6.76;39.48
39954;BME280;25631;51.516;-0.470;2024-01-06T03:14:58;100898.07;;;7.09;39.49
39954;BME280;25631;51.516;-0.470;2024-01-06T03:17:34;100893.86;;;6.69;39.54
39954;BME280;25631;51.516;-0.470;2024-01-06T03:20:11;100898.70;;;7.20;39.52
39954;BME280;25631;51.516;-0.470;2024-01-06T03:22:47;100902.50;;;6.52;39.53
39954;BME280;25631;51.516;-0.470;2024-01-06T03:25:23;100903.99;;;6.77;39.48
39954;BME280;25631;51.516;-0.470;2024-01-06T03:28:00;100904.92;;;6.77;39.36
39954;BME280;25631;51.516;-0.470;2024-01-06T03:30:36;100907.40;;;7.36;39.26
39954;BME280;25631;51.516;-0.470;2024-01-06T03:33:13;100907.81;;;6.68;39.25
39954;BME280;25631;51.516;-0.470;2024-01-06T03:35:49;100910.02;;;6.54;39.31
39954;BME280;25631;51.516;-0.470;2024-01-06T03:38:25;100910.85;;;6.77;39.34
39954;BME280;25631;51.516;-0.470;2024-01-06T03:41:02;100916.15;;;6.99;39.34
39954;BME280;25631;51.516;-0.470;2024-01-06T03:43:38;100920.64;;;6.95;39.41
39954;BME280;25631;51.516;-0.470;2024-01-06T03:46:15;100920.32;;;6.75;39.44
39954;BME280;25631;51.516;-0.470;2024-01-06T03:48:51;100921.95;;;6.87;39.51
39954;BME280;25631;51.516;-0.470;2024-01-06T03:51:27;100921.80;;;6.53;39.63
39954;BME280;25631;51.516;-0.470;2024-01-06T03:54:04;100926.16;;;6.56;39.66
39954;BME280;25631;51.516;-0.470;2024-01-06T03:56:40;100927.62;;;6.59;39.83
39954;BME280;25631;51.516;-0.470;2024-01-06T03:59:16;100929.87;;;6.24;39.90
39954;BME280;25631;51.516;-0.470;2024-01-06T04:01:53;100934.24;;;6.21;39.96
39954;BME280;25631;51.516;-0.470;2024-01-06T04:04:30;100938.27;;;6.30;40.04
39954;BME280;25631;51.516;-0.470;2024-01-06T04:07:06;100938.88;;;6.29;40.04
39954;BME280;25631;51.516;-0.470;2024-01-06T04:09:42;100942.98;;;6.28;40.12
39954;BME280;25631;51.516;-0.470;2024-01-06T04:12:19;100948.06;;;6.48;40.16
39954;BME280;25631;51.516;-0.470;2024-01-06T04:14:56;100951.70;;;6.60;40.21
39954;BME280;25631;51.516;-0.470;2024-01-06T04:17:32;100957.64;;;6.42;40.27
39954;BME280;25631;51.516;-0.470;2024-01-06T04:20:09;100958.70;;;6.40;40.24
39954;BME280;25631;51.516;-0.470;2024-01-06T04:22:46;100961.64;;;6.58;40.28
39954;BME280;25631;51.516;-0.470;2024-01-06T04:25:22;100965.25;;;6.49;40.31
39954;BME280;25631;51.516;-0.470;2024-01-06T04:27:59;100966.61;;;6.43;40.27
39954;BME280;25631;51.516;-0.470;2024-01-06T04:30:35;100970.02;;;6.37;40.16
39954;BME280;25631;51.516;-0.470;2024-01-06T04:33:11;100970.48;;;6.75;40.20
39954;BME280;25631;51.516;-0.470;2024-01-06T04:35:48;100973.28;;;6.56;40.19
39954;BME280;25631;51.516;-0.470;2024-01-06T04:38:24;100976.72;;;6.56;40.16
39954;BME280;25631;51.516;-0.470;2024-01-06T04:41:01;100978.20;;;6.78;40.06
39954;BME280;25631;51.516;-0.470;2024-01-06T04:43:37;100982.22;;;6.68;40.15
39954;BME280;25631;51.516;-0.470;2024-01-06T04:46:13;100984.71;;;6.73;40.11
39954;BME280;25631;51.516;-0.470;2024-01-06T04:48:50;100988.00;;;6.66;40.20
39954;BME280;25631;51.516;-0.470;2024-01-06T04:51:26;100988.18;;;6.71;40.00
39954;BME280;25631;51.516;-0.470;2024-01-06T04:54:03;100993.53;;;6.57;39.95
39954;BME280;25631;51.516;-0.470;2024-01-06T04:56:39;100996.86;;;6.64;39.93
39954;BME280;25631;51.516;-0.470;2024-01-06T04:59:16;100999.56;;;6.65;39.89
39954;BME280;25631;51.516;-0.470;2024-01-06T05:01:53;101005.70;;;6.72;39.88
39954;BME280;25631;51.516;-0.470;2024-01-06T05:04:30;101008.40;;;6.31;39.80
39954;BME280;25631;51.516;-0.470;2024-01-06T05:07:06;101009.35;;;6.65;39.81
39954;BME280;25631;51.516;-0.470;2024-01-06T05:09:42;101009.75;;;6.67;39.80
39954;BME280;25631;51.516;-0.470;2024-01-06T05:12:19;101012.82;;;6.64;39.74
39954;BME280;25631;51.516;-0.470;2024-01-06T05:14:56;101014.77;;;6.74;39.65
39954;BME280;25631;51.516;-0.470;2024-01-06T05:17:32;101016.60;;;6.51;39.58
39954;BME280;25631;51.516;-0.470;2024-01-06T05:20:09;101019.52;;;6.68;39.48
39954;BME280;25631;51.516;-0.470;2024-01-06T05:22:46;101021.06;;;6.68;39.37
39954;BME280;25631;51.516;-0.470;2024-01-06T05:25:22;101025.40;;;6.63;39.26
39954;BME280;25631;51.516;-0.470;2024-01-06T05:27:59;101026.12;;;6.60;39.11
39954;BME280;25631;51.516;-0.470;2024-01-06T05:30:35;101024.95;;;6.92;39.08
39954;BME280;25631;51.516;-0.470;2024-01-06T05:33:12;101021.60;;;6.24;39.13
39954;BME280;25631;51.516;-0.470;2024-01-06T05:35:48;101021.72;;;6.39;39.15
39954;BME280;25631;51.516;-0.470;2024-01-06T05:38:25;101022.36;;;6.51;39.12
39954;BME280;25631;51.516;-0.470;2024-01-06T05:41:01;101028.18;;;6.64;39.08
39954;BME280;25631;51.516;-0.470;2024-01-06T05:43:37;101037.66;;;6.60;38.87
39954;BME280;25631;51.516;-0.470;2024-01-06T05:46:20;101045.39;;;6.49;38.72
39954;BME280;25631;51.516;-0.470;2024-01-06T05:48:57;101046.92;;;6.35;38.63
39954;BME280;25631;51.516;-0.470;2024-01-06T05:51:33;101050.41;;;6.29;38.49
39954;BME280;25631;51.516;-0.470;2024-01-06T05:54:10;101050.58;;;6.31;38.55
39954;BME280;25631;51.516;-0.470;2024-01-06T05:56:46;101047.97;;;6.34;38.65
39954;BME280;25631;51.516;-0.470;2024-01-06T05:59:22;101050.46;;;6.28;38.59
39954;BME280;25631;51.516;-0.470;2024-01-06T06:01:59;101060.10;;;6.66;38.56
39954;BME280;25631;51.516;-0.470;2024-01-06T06:04:35;101072.27;;;6.09;38.38
39954;BME280;25631;51.516;-0.470;2024-01-06T06:07:11;101076.90;;;6.31;38.17
39954;BME280;25631;51.516;-0.470;2024-01-06T06:09:48;101083.41;;;6.27;38.11
39954;BME280;25631;51.516;-0.470;2024-01-06T06:12:24;101085.96;;;6.28;38.14
39954;BME280;25631;51.516;-0.470;2024-01-06T06:15:00;101091.73;;;6.20;38.13
39954;BME280;25631;51.516;-0.470;2024-01-06T06:17:38;101094.37;;;6.23;38.20
39954;BME280;25631;51.516;-0.470;2024-01-06T06:20:15;101098.32;;;6.06;38.22
39954;BME280;25631;51.516;-0.470;2024-01-06T06:22:51;101100.81;;;6.19;38.32
39954;BME280;25631;51.516;-0.470;2024-01-06T06:25:28;101101.02;;;5.76;38.25
39954;BME280;25631;51.516;-0.470;2024-01-06T06:28:04;101106.97;;;6.06;38.24
39954;BME280;25631;51.516;-0.470;2024-01-06T06:30:41;101112.89;;;6.31;38.28
39954;BME280;25631;51.516;-0.470;2024-01-06T06:33:18;101117.79;;;5.97;38.35
39954;BME280;25631;51.516;-0.470;2024-01-06T06:35:54;101120.70;;;6.15;38.33
39954;BME280;25631;51.516;-0.470;2024-01-06T06:38:30;101126.70;;;6.03;38.29
39954;BME280;25631;51.516;-0.470;2024-01-06T06:41:07;101130.67;;;6.30;38.26
39954;BME280;25631;51.516;-0.470;2024-01-06T06:43:43;101133.13;;;6.30;38.27
39954;BME280;25631;51.516;-0.470;2024-01-06T06:46:19;101138.13;;;6.27;38.15
39954;BME280;25631;51.516;-0.470;2024-01-06T06:48:56;101141.13;;;6.22;37.90
39954;BME280;25631;51.516;-0.470;2024-01-06T06:51:32;101143.17;;;6.24;37.78
39954;BME280;25631;51.516;-0.470;2024-01-06T06:54:09;101148.56;;;6.26;37.71
39954;BME280;25631;51.516;-0.470;2024-01-06T06:56:45;101152.09;;;6.08;37.56
39954;BME280;25631;51.516;-0.470;2024-01-06T06:59:21;101156.21;;;6.12;37.61
39954;BME280;25631;51.516;-0.470;2024-01-06T07:01:58;101163.14;;;6.02;37.61
39954;BME280;25631;51.516;-0.470;2024-01-06T07:04:34;101169.07;;;6.38;37.70
39954;BME280;25631;51.516;-0.470;2024-01-06T07:07:10;101176.32;;;6.23;37.52
39954;BME280;25631;51.516;-0.470;2024-01-06T07:09:46;101182.84;;;6.16;37.63
39954;BME280;25631;51.516;-0.470;2024-01-06T07:12:23;101186.89;;;5.91;37.71
39954;BME280;25631;51.516;-0.470;2024-01-06T07:14:59;101189.49;;;6.11;37.77
39954;BME280;25631;51.516;-0.470;2024-01-06T07:17:36;101194.87;;;6.12;37.83
39954;BME280;25631;51.516;-0.470;2024-01-06T07:20:12;101196.48;;;5.85;37.75
39954;BME280;25631;51.516;-0.470;2024-01-06T07:22:49;101204.06;;;5.94;37.70
39954;BME280;25631;51.516;-0.470;2024-01-06T07:25:25;101206.11;;;6.11;37.70
39954;BME280;25631;51.516;-0.470;2024-01-06T07:28:02;101207.89;;;6.12;37.70
39954;BME280;25631;51.516;-0.470;2024-01-06T07:30:38;101213.13;;;5.90;37.68
39954;BME280;25631;51.516;-0.470;2024-01-06T07:33:15;101213.09;;;5.95;37.71
39954;BME280;25631;51.516;-0.470;2024-01-06T07:35:51;101221.10;;;6.17;37.70
39954;BME280;25631;51.516;-0.470;2024-01-06T07:38:28;101225.79;;;5.70;37.79
39954;BME280;25631;51.516;-0.470;2024-01-06T07:41:04;101225.98;;;6.19;37.71
39954;BME280;25631;51.516;-0.470;2024-01-06T07:43:41;101228.02;;;6.12;37.79
39954;BME280;25631;51.516;-0.470;2024-01-06T07:46:17;101224.96;;;6.11;37.81
39954;BME280;25631;51.516;-0.470;2024-01-06T07:48:53;101225.89;;;5.82;37.89
39954;BME280;25631;51.516;-0.470;2024-01-06T07:51:30;101232.17;;;5.99;37.93
39954;BME280;25631;51.516;-0.470;2024-01-06T07:54:06;101237.88;;;6.24;37.86
39954;BME280;25631;51.516;-0.470;2024-01-06T07:56:43;101237.98;;;6.23;37.94
39954;BME280;25631;51.516;-0.470;2024-01-06T07:59:19;101241.54;;;6.36;37.92
39954;BME280;25631;51.516;-0.470;2024-01-06T08:01:56;101247.42;;;6.09;37.81
39954;BME280;25631;51.516;-0.470;2024-01-06T08:04:32;101251.39;;;6.02;37.83
39954;BME280;25631;51.516;-0.470;2024-01-06T08:07:09;101255.32;;;5.96;37.72
39954;BME280;25631;51.516;-0.470;2024-01-06T08:09:48;101257.05;;;5.87;37.72
39954;BME280;25631;51.516;-0.470;2024-01-06T08:12:25;101261.62;;;6.07;37.74
39954;BME280;25631;51.516;-0.470;2024-01-06T08:15:01;101269.95;;;5.99;37.72
39954;BME280;25631;51.516;-0.470;2024-01-06T08:17:37;101271.45;;;5.70;37.79
39954;BME280;25631;51.516;-0.470;2024-01-06T08:20:14;101275.18;;;5.38;37.73
39954;BME280;25631;51.516;-0.470;2024-01-06T08:22:50;101279.28;;;5.74;37.77
39954;BME280;25631;51.516;-0.470;2024-01-06T08:25:27;101286.49;;;5.96;37.82
39954;BME280;25631;51.516;-0.470;2024-01-06T08:28:04;101298.74;;;6.10;37.71
39954;BME280;25631;51.516;-0.470;2024-01-06T08:30:40;101299.14;;;5.79;37.74
39954;BME280;25631;51.516;-0.470;2024-01-06T08:33:17;101302.14;;;5.95;37.86
39954;BME280;25631;51.516;-0.470;2024-01-06T08:35:53;101305.36;;;5.52;37.80
39954;BME280;25631;51.516;-0.470;2024-01-06T08:38:30;101315.87;;;5.89;37.72
39954;BME280;25631;51.516;-0.470;2024-01-06T08:41:06;101319.64;;;5.72;37.74
39954;BME280;25631;51.516;-0.470;2024-01-06T08:43:42;101324.02;;;5.38;37.86
39954;BME280;25631;51.516;-0.470;2024-01-06T08:46:19;101325.11;;;5.52;37.88
39954;BME280;25631;51.516;-0.470;2024-01-06T08:48:55;101331.41;;;5.27;37.87
39954;BME280;25631;51.516;-0.470;2024-01-06T08:51:31;101334.20;;;5.68;37.90
39954;BME280;25631;51.516;-0.470;2024-01-06T08:54:08;101337.97;;;5.42;37.91
39954;BME280;25631;51.516;-0.470;2024-01-06T08:56:44;101339.83;;;5.62;37.98
39954;BME280;25631;51.516;-0.470;2024-01-06T08:59:20;101342.96;;;5.48;38.03
39954;BME280;25631;51.516;-0.470;2024-01-06T09:01:57;101348.82;;;5.55;38.10
39954;BME280;25631;51.516;-0.470;2024-01-06T09:04:33;101354.34;;;5.47;38.10
39954;BME280;25631;51.516;-0.470;2024-01-06T09:07:09;101359.47;;;5.50;38.06
39954;BME280;25631;51.516;-0.470;2024-01-06T09:09:46;101360.08;;;5.50;38.08
39954;BME280;25631;51.516;-0.470;2024-01-06T09:12:22;101362.87;;;5.30;38.13
39954;BME280;25631;51.516;-0.470;2024-01-06T09:14:58;101368.48;;;5.50;38.19
39954;BME280;25631;51.516;-0.470;2024-01-06T09:17:35;101374.80;;;5.53;38.23
39954;BME280;25631;51.516;-0.470;2024-01-06T09:20:11;101377.16;;;5.60;38.10
39954;BME280;25631;51.516;-0.470;2024-01-06T09:22:48;101383.82;;;5.34;38.11
39954;BME280;25631;51.516;-0.470;2024-01-06T09:25:24;101386.45;;;5.68;38.22
39954;BME280;25631;51.516;-0.470;2024-01-06T09:28:00;101393.72;;;5.57;38.20
39954;BME280;25631;51.516;-0.470;2024-01-06T09:30:37;101399.56;;;5.45;38.13
39954;BME280;25631;51.516;-0.470;2024-01-06T09:33:13;101406.24;;;5.83;38.15
39954;BME280;25631;51.516;-0.470;2024-01-06T09:35:50;101406.59;;;5.70;38.06
39954;BME280;25631;51.516;-0.470;2024-01-06T09:38:26;101417.16;;;5.74;38.07
39954;BME280;25631;51.516;-0.470;2024-01-06T09:41:03;101425.76;;;5.77;37.99
39954;BME280;25631;51.516;-0.470;2024-01-06T09:43:40;101422.64;;;5.39;38.04
39954;BME280;25631;51.516;-0.470;2024-01-06T09:46:23;101426.23;;;5.33;38.14
39954;BME280;25631;51.516;-0.470;2024-01-06T09:49:00;101429.43;;;5.46;38.22
39954;BME280;25631;51.516;-0.470;2024-01-06T09:51:39;101427.38;;;5.60;38.27
39954;BME280;25631;51.516;-0.470;2024-01-06T09:54:16;101429.99;;;5.52;38.32
39954;BME280;25631;51.516;-0.470;2024-01-06T09:56:52;101431.01;;;5.57;38.41
39954;BME280;25631;51.516;-0.470;2024-01-06T09:59:29;101437.39;;;5.66;38.31
39954;BME280;25631;51.516;-0.470;2024-01-06T10:02:07;101442.29;;;5.76;38.24
39954;BME280;25631;51.516;-0.470;2024-01-06T10:04:44;101445.53;;;5.75;38.29
39954;BME280;25631;51.516;-0.470;2024-01-06T10:07:20;101451.32;;;5.42;38.26
39954;BME280;25631;51.516;-0.470;2024-01-06T10:09:57;101460.87;;;5.69;38.31
39954;BME280;25631;51.516;-0.470;2024-01-06T10:12:33;101461.93;;;5.69;38.18
39954;BME280;25631;51.516;-0.470;2024-01-06T10:15:11;101465.70;;;5.65;38.11
39954;BME280;25631;51.516;-0.470;2024-01-06T10:17:47;101469.61;;;5.54;38.00
39954;BME280;25631;51.516;-0.470;2024-01-06T10:20:24;101473.72;;;5.37;38.01
39954;BME280;25631;51.516;-0.470;2024-01-06T10:23:05;101473.94;;;5.71;38.05
39954;BME280;25631;51.516;-0.470;2024-01-06T10:25:41;101474.57;;;6.01;38.06
39954;BME280;25631;51.516;-0.470;2024-01-06T10:28:18;101475.84;;;6.22;38.00
39954;BME280;25631;51.516;-0.470;2024-01-06T10:30:55;101474.35;;;5.87;37.87
39954;BME280;25631;51.516;-0.470;2024-01-06T10:33:32;101473.92;;;5.97;37.88
39954;BME280;25631;51.516;-0.470;2024-01-06T10:36:09;101476.44;;;5.96;37.81
39954;BME280;25631;51.516;-0.470;2024-01-06T10:38:46;101477.93;;;5.95;37.76
39954;BME280;25631;51.516;-0.470;2024-01-06T10:41:23;101483.60;;;6.02;37.76
39954;BME280;25631;51.516;-0.470;2024-01-06T10:44:00;101487.47;;;6.22;37.58
39954;BME280;25631;51.516;-0.470;2024-01-06T10:46:38;101489.74;;;5.85;37.44
39954;BME280;25631;51.516;-0.470;2024-01-06T10:49:15;101490.41;;;6.17;37.43
39954;BME280;25631;51.516;-0.470;2024-01-06T10:51:53;101489.03;;;5.66;37.22
39954;BME280;25631;51.516;-0.470;2024-01-06T10:54:30;101490.85;;;5.83;37.26
39954;BME280;25631;51.516;-0.470;2024-01-06T10:57:07;101490.59;;;5.86;37.57
39954;BME280;25631;51.516;-0.470;2024-01-06T10:59:45;101493.27;;;5.76;37.66
39954;BME280;25631;51.516;-0.470;2024-01-06T11:02:25;101494.80;;;5.65;37.89
39954;BME280;25631;51.516;-0.470;2024-01-06T11:05:02;101492.30;;;5.58;37.95
39954;BME280;25631;51.516;-0.470;2024-01-06T11:07:39;101494.51;;;5.70;37.98
39954;BME280;25631;51.516;-0.470;2024-01-06T11:10:17;101496.20;;;5.48;38.09
39954;BME280;25631;51.516;-0.470;2024-01-06T11:13:11;101492.25;;;5.56;38.05
39954;BME280;25631;51.516;-0.470;2024-01-06T11:15:49;101491.28;;;5.43;38.03
39954;BME280;25631;51.516;-0.470;2024-01-06T11:18:34;101492.53;;;5.59;38.05
39954;BME280;25631;51.516;-0.470;2024-01-06T11:21:19;101493.16;;;5.74;37.97
39954;BME280;25631;51.516;-0.470;2024-01-06T11:24:36;101491.98;;;6.14;38.12
39954;BME280;25631;51.516;-0.470;2024-01-06T11:27:17;101492.69;;;6.14;38.06
39954;BME280;25631;51.516;-0.470;2024-01-06T11:29:54;101496.67;;;5.85;38.13
39954;BME280;25631;51.516;-0.470;2024-01-06T11:32:32;101494.84;;;6.05;37.97
39954;BME280;25631;51.516;-0.470;2024-01-06T11:35:11;101493.45;;;6.12;37.78
39954;BME280;25631;51.516;-0.470;2024-01-06T11:37:52;101495.67;;;6.35;37.55
39954;BME280;25631;51.516;-0.470;2024-01-06T11:40:33;101496.67;;;6.16;37.38
39954;BME280;25631;51.516;-0.470;2024-01-06T11:43:11;101498.60;;;6.21;37.45
39954;BME280;25631;51.516;-0.470;2024-01-06T11:45:48;101497.54;;;6.45;37.28
39954;BME280;25631;51.516;-0.470;2024-01-06T11:48:26;101504.76;;;6.41;37.17
39954;BME280;25631;51.516;-0.470;2024-01-06T11:51:06;101503.23;;;6.36;37.04
39954;BME280;25631;51.516;-0.470;2024-01-06T11:53:42;101505.97;;;6.67;37.02
39954;BME280;25631;51.516;-0.470;2024-01-06T11:56:19;101504.96;;;6.56;37.00
39954;BME280;25631;51.516;-0.470;2024-01-06T11:58:55;101503.51;;;6.45;37.03
39954;BME280;25631;51.516;-0.470;2024-01-06T12:01:36;101503.04;;;6.69;36.69
39954;BME280;25631;51.516;-0.470;2024-01-06T12:04:14;101502.08;;;6.59;36.59
39954;BME280;25631;51.516;-0.470;2024-01-06T12:06:51;101501.77;;;6.32;36.57
39954;BME280;25631;51.516;-0.470;2024-01-06T12:09:27;101501.37;;;6.34;36.49
39954;BME280;25631;51.516;-0.470;2024-01-06T12:12:04;101498.72;;;6.61;36.28
39954;BME280;25631;51.516;-0.470;2024-01-06T12:14:41;101499.71;;;6.43;36.30
39954;BME280;25631;51.516;-0.470;2024-01-06T12:17:20;101498.01;;;6.34;36.30
39954;BME280;25631;51.516;-0.470;2024-01-06T12:19:57;101496.96;;;6.14;36.38
39954;BME280;25631;51.516;-0.470;2024-01-06T12:22:34;101495.98;;;6.56;36.52
39954;BME280;25631;51.516;-0.470;2024-01-06T12:25:10;101495.62;;;6.84;36.62
39954;BME280;25631;51.516;-0.470;2024-01-06T12:27:49;101488.72;;;6.77;36.42
39954;BME280;25631;51.516;-0.470;2024-01-06T12:30:25;101492.53;;;6.28;36.18
39954;BME280;25631;51.516;-0.470;2024-01-06T12:33:03;101488.70;;;6.31;36.09
39954;BME280;25631;51.516;-0.470;2024-01-06T12:35:40;101491.49;;;6.75;36.17
39954;BME280;25631;51.516;-0.470;2024-01-06T12:38:19;101489.24;;;6.57;35.90
39954;BME280;25631;51.516;-0.470;2024-01-06T12:40:56;101494.30;;;6.59;35.84
39954;BME280;25631;51.516;-0.470;2024-01-06T12:43:32;101491.45;;;6.63;35.98
39954;BME280;25631;51.516;-0.470;2024-01-06T12:46:09;101493.36;;;6.72;35.91
39954;BME280;25631;51.516;-0.470;2024-01-06T12:48:46;101486.88;;;6.79;35.94
39954;BME280;25631;51.516;-0.470;2024-01-06T12:51:22;101486.99;;;6.72;35.86
39954;BME280;25631;51.516;-0.470;2024-01-06T12:53:59;101485.72;;;6.79;35.67
39954;BME280;25631;51.516;-0.470;2024-01-06T12:56:35;101484.30;;;6.58;35.43
39954;BME280;25631;51.516;-0.470;2024-01-06T12:59:11;101487.77;;;6.60;35.44
39954;BME280;25631;51.516;-0.470;2024-01-06T13:01:48;101487.59;;;6.47;35.39
39954;BME280;25631;51.516;-0.470;2024-01-06T13:04:24;101491.79;;;6.51;35.28
39954;BME280;25631;51.516;-0.470;2024-01-06T13:07:01;101490.77;;;6.53;34.86
39954;BME280;25631;51.516;-0.470;2024-01-06T13:09:38;101489.04;;;6.45;34.99
39954;BME280;25631;51.516;-0.470;2024-01-06T13:12:14;101489.96;;;6.54;34.96
39954;BME280;25631;51.516;-0.470;2024-01-06T13:14:51;101489.04;;;6.64;35.14
39954;BME280;25631;51.516;-0.470;2024-01-06T13:17:27;101489.78;;;6.36;35.11
39954;BME280;25631;51.516;-0.470;2024-01-06T13:20:04;101490.37;;;6.30;35.04
39954;BME280;25631;51.516;-0.470;2024-01-06T13:22:41;101492.00;;;6.89;34.78
39954;BME280;25631;51.516;-0.470;2024-01-06T13:25:17;101494.06;;;6.52;34.78
39954;BME280;25631;51.516;-0.470;2024-01-06T13:27:54;101498.05;;;6.47;34.83
39954;BME280;25631;51.516;-0.470;2024-01-06T13:30:30;101501.76;;;6.49;34.80
39954;BME280;25631;51.516;-0.470;2024-01-06T13:33:07;101506.63;;;6.61;34.95
39954;BME280;25631;51.516;-0.470;2024-01-06T13:35:43;101506.45;;;6.63;35.08
39954;BME280;25631;51.516;-0.470;2024-01-06T13:38:20;101506.83;;;6.54;35.07
39954;BME280;25631;51.516;-0.470;2024-01-06T13:40:56;101509.09;;;6.60;34.93